Time;durP1;ratioP1;P1;durP2;ratioP2;P2;SDS_P1;SDS_P2;PMS_P1;PMS_P2;Temp;Humidity;BMP_temperature;BMP_pressure;BME280_temperature;BME280_humidity;BME280_pressure;Samples;Min_cycle;Max_cycle;Signal;HPM_P1;HPM_P2
2022/04/13 00:01:03;;;;;;;9.27;4.33;;;;;;;15.04;63.19;101015.06;5076069;28;20271;-61
2022/04/13 00:03:29;;;;;;;11.77;4.13;;;;;;;14.91;64.66;101018.00;5075552;28;20271;-62
2022/04/13 00:05:55;;;;;;;8.43;4.45;;;;;;;14.87;64.62;101005.00;5075922;28;20029;-62
2022/04/13 00:08:20;;;;;;;10.63;4.70;;;;;;;14.81;65.34;101002.53;5075555;28;20033;-61
2022/04/13 00:10:46;;;;;;;8.98;4.68;;;;;;;14.76;65.38;101007.91;5075623;28;20033;-61
2022/04/13 00:13:11;;;;;;;8.98;4.78;;;;;;;14.75;65.04;101016.72;5075538;28;20033;-61
2022/04/13 00:15:37;;;;;;;9.75;4.63;;;;;;;14.71;65.45;101020.38;5075595;28;20040;-61
2022/04/13 00:18:07;;;;;;;12.25;5.05;;;;;;;14.69;66.01;101013.41;5075554;28;20028;-62
2022/04/13 00:20:33;;;;;;;10.00;4.90;;;;;;;14.72;66.59;101019.44;5075088;28;20436;-62
2022/04/13 00:22:58;;;;;;;12.32;4.85;;;;;;;14.64;67.56;101018.78;5075203;28;20048;-62
2022/04/13 00:25:24;;;;;;;10.30;4.13;;;;;;;14.65;66.80;101017.03;5075274;28;20043;-61
2022/04/13 00:27:49;;;;;;;10.83;4.60;;;;;;;14.69;66.55;101021.31;5075279;28;20028;-62
2022/04/13 00:30:14;;;;;;;9.17;4.40;;;;;;;14.62;65.75;101024.09;5075457;28;20599;-62
2022/04/13 00:32:39;;;;;;;10.82;4.95;;;;;;;14.53;67.97;101028.78;5075102;28;20356;-62
2022/04/13 00:35:05;;;;;;;10.18;4.22;;;;;;;14.45;66.56;101031.59;5075542;28;20432;-62
2022/04/13 00:37:31;;;;;;;9.63;4.80;;;;;;;14.49;67.34;101033.25;5074851;28;20039;-61
2022/04/13 00:39:56;;;;;;;8.32;3.90;;;;;;;14.47;66.69;101031.56;5075125;28;20114;-61
2022/04/13 00:42:22;;;;;;;10.60;4.85;;;;;;;14.46;67.55;101043.84;5075208;28;20029;-61
2022/04/13 00:44:47;;;;;;;9.35;4.18;;;;;;;14.40;66.45;101038.75;5075316;28;20025;-61
2022/04/13 00:47:13;;;;;;;9.48;4.63;;;;;;;14.41;68.23;101042.22;5075055;28;20036;-61
2022/04/13 00:49:38;;;;;;;9.70;3.90;;;;;;;14.41;67.44;101040.47;5074837;28;20071;-61
2022/04/13 00:52:05;;;;;;;11.35;4.30;;;;;;;14.33;66.58;101047.69;5074653;28;20085;-63
2022/04/13 00:54:31;;;;;;;11.52;4.15;;;;;;;14.36;67.47;101042.34;5075064;28;20067;-62
2022/04/13 00:56:57;;;;;;;7.40;3.75;;;;;;;14.33;68.08;101047.69;5075543;28;20040;-62
2022/04/13 00:59:24;;;;;;;9.70;4.18;;;;;;;14.20;68.06;101056.78;5074883;28;20458;-62
2022/04/13 01:01:53;;;;;;;10.25;4.38;;;;;;;14.21;67.54;101051.47;5074767;28;20029;-62
2022/04/13 01:04:19;;;;;;;12.45;4.13;;;;;;;14.17;67.53;101070.91;5074734;28;20040;-63
2022/04/13 01:06:44;;;;;;;8.23;4.20;;;;;;;14.20;68.73;101068.16;5074680;28;20043;-62
2022/04/13 01:09:15;;;;;;;7.13;4.13;;;;;;;14.22;67.19;101070.75;5075037;28;20028;-62
2022/04/13 01:11:40;;;;;;;9.20;4.65;;;;;;;14.18;67.95;101075.25;5075211;28;20060;-62
2022/04/13 01:14:06;;;;;;;8.77;4.40;;;;;;;14.13;68.34;101074.50;5075140;28;20129;-63
2022/04/13 01:16:32;;;;;;;9.82;4.25;;;;;;;14.18;68.07;101079.66;5074801;28;20143;-63
2022/04/13 01:18:58;;;;;;;11.00;4.15;;;;;;;14.12;68.90;101080.66;5074433;28;20494;-62
2022/04/13 01:21:45;;;;;;;8.77;4.20;;;;;;;14.15;67.80;101091.13;5074851;28;20036;-63
2022/04/13 01:24:12;;;;;;;11.45;4.25;;;;;;;14.19;68.63;101091.91;5076747;28;20444;-62
2022/04/13 01:26:38;;;;;;;10.73;4.43;;;;;;;14.16;67.89;101097.25;5078904;28;20024;-62
2022/04/13 01:29:04;;;;;;;13.60;4.32;;;;;;;14.16;68.65;101098.13;5078899;28;20036;-62
2022/04/13 01:31:30;;;;;;;9.93;4.50;;;;;;;14.16;68.49;101099.88;5078086;28;20467;-63
2022/04/13 01:33:56;;;;;;;10.98;5.47;;;;;;;14.12;68.52;101108.75;5078465;28;20120;-63
2022/04/13 01:36:21;;;;;;;10.20;5.38;;;;;;;14.11;69.46;101112.28;5078973;28;20025;-62
2022/04/13 01:38:46;;;;;;;12.85;5.78;;;;;;;14.09;69.25;101114.94;5078450;28;20519;-62
2022/04/13 01:41:12;;;;;;;14.05;6.00;;;;;;;13.93;69.91;101088.13;5078724;28;20036;-62
2022/04/13 01:43:37;;;;;;;14.70;5.97;;;;;;;14.09;70.53;101114.94;5078420;28;20111;-63
2022/04/13 01:46:04;;;;;;;11.77;6.18;;;;;;;14.13;70.04;101127.13;5078466;28;20402;-62
2022/04/13 01:48:31;;;;;;;12.13;6.05;;;;;;;14.16;69.98;101129.69;5078475;28;20064;-63
2022/04/13 01:50:58;;;;;;;13.32;6.03;;;;;;;14.15;70.22;101127.09;5078123;28;20028;-62
2022/04/13 01:53:23;;;;;;;13.95;6.80;;;;;;;14.15;70.72;101127.97;5078288;28;20111;-63
2022/04/13 01:55:49;;;;;;;16.92;6.30;;;;;;;14.10;70.56;101135.09;5078481;28;20036;-62
2022/04/13 01:58:14;;;;;;;13.73;6.97;;;;;;;14.07;71.14;101129.91;5078030;28;20067;-62
2022/04/13 02:00:39;;;;;;;14.40;6.50;;;;;;;14.09;72.15;101136.00;5078132;28;20032;-63
2022/04/13 02:03:05;;;;;;;11.60;6.50;;;;;;;14.03;72.37;101128.22;5078056;28;20033;-63
2022/04/13 02:05:30;;;;;;;11.40;6.40;;;;;;;14.06;72.67;101137.81;5078198;28;20024;-62
2022/04/13 02:07:55;;;;;;;10.23;6.20;;;;;;;14.05;72.51;101136.09;5077981;28;20044;-62
2022/04/13 02:10:20;;;;;;;14.98;6.50;;;;;;;14.05;72.36;101144.00;5078171;28;20033;-62
2022/04/13 02:12:47;;;;;;;12.15;6.25;;;;;;;14.05;73.32;101130.84;5077817;28;20028;-62
2022/04/13 02:15:13;;;;;;;12.77;6.32;;;;;;;14.03;73.45;101143.16;5077622;28;20431;-62
2022/04/13 02:17:38;;;;;;;11.90;7.05;;;;;;;14.00;73.18;101143.25;5077858;28;20036;-63
2022/04/13 02:20:08;;;;;;;13.13;6.57;;;;;;;14.01;73.15;101143.22;5077845;28;20344;-62
2022/04/13 02:22:34;;;;;;;13.48;7.03;;;;;;;14.03;73.30;101156.31;5077912;28;20093;-62
2022/04/13 02:25:00;;;;;;;12.98;7.00;;;;;;;13.98;73.81;101145.91;5077839;28;20037;-62
2022/04/13 02:27:26;;;;;;;12.57;6.43;;;;;;;13.99;73.14;101152.03;5077469;28;20028;-63
2022/04/13 02:29:51;;;;;;;13.27;7.28;;;;;;;13.96;73.22;101152.97;5077838;28;20035;-62
2022/04/13 02:32:17;;;;;;;15.40;6.75;;;;;;;13.87;73.93;101161.06;5077289;28;20198;-63
2022/04/13 02:34:44;;;;;;;10.77;7.10;;;;;;;13.82;74.44;101139.25;5077515;28;20036;-62
2022/04/13 02:37:10;;;;;;;12.13;6.57;;;;;;;13.85;73.78;101144.47;5077367;28;20444;-62
2022/04/13 02:39:35;;;;;;;17.63;7.20;;;;;;;13.78;75.10;101156.00;5077721;28;20083;-62
2022/04/13 02:42:00;;;;;;;13.50;6.60;;;;;;;13.75;74.79;101161.31;5077230;28;20028;-63
2022/04/13 02:44:26;;;;;;;10.88;6.25;;;;;;;13.72;75.07;101158.75;5077557;28;20067;-62
2022/04/13 02:46:51;;;;;;;12.20;6.57;;;;;;;13.63;75.67;101157.19;5077487;28;20029;-62
2022/04/13 02:49:16;;;;;;;14.15;6.72;;;;;;;13.64;76.08;101155.44;5077573;28;20032;-62
2022/04/13 02:51:41;;;;;;;12.63;6.70;;;;;;;13.58;76.74;101164.31;5077148;28;20032;-62
2022/04/13 02:54:07;;;;;;;13.80;6.68;;;;;;;13.55;76.71;101167.88;5077359;28;20439;-63
2022/04/13 02:56:33;;;;;;;15.25;6.95;;;;;;;13.46;77.59;101161.94;5076977;28;20028;-62
2022/04/13 02:58:58;;;;;;;13.50;6.50;;;;;;;13.21;77.16;101141.38;5076863;28;20308;-62
2022/04/13 03:01:23;;;;;;;12.85;6.95;;;;;;;13.40;77.31;101172.56;5077201;28;20039;-62
2022/04/13 03:03:49;;;;;;;13.18;6.40;;;;;;;13.33;78.37;101169.22;5076798;28;20028;-62
2022/04/13 03:06:14;;;;;;;12.95;6.35;;;;;;;13.25;78.05;101163.22;5077147;28;20036;-62
2022/04/13 03:08:39;;;;;;;10.95;6.70;;;;;;;13.19;78.63;101166.81;5076930;28;20491;-62
2022/04/13 03:11:07;;;;;;;12.32;6.82;;;;;;;13.06;78.45;101167.91;5077034;28;20024;-63
2022/04/13 03:13:32;;;;;;;11.88;6.20;;;;;;;13.00;78.93;101186.41;5077057;28;20029;-63
2022/04/13 03:15:57;;;;;;;12.82;6.45;;;;;;;12.89;78.76;101172.63;5077038;28;20043;-62
2022/04/13 03:18:22;;;;;;;15.88;6.93;;;;;;;12.92;79.52;101174.31;5076818;28;20032;-62
2022/04/13 03:20:48;;;;;;;12.73;7.07;;;;;;;12.86;79.51;101170.91;5076845;28;20105;-63
2022/04/13 03:23:13;;;;;;;11.73;7.10;;;;;;;12.83;80.03;101164.84;5077180;28;20043;-63
2022/04/13 03:25:38;;;;;;;14.25;6.63;;;;;;;12.77;79.97;101165.81;5076492;28;20465;-64
2022/04/13 03:28:04;;;;;;;11.63;6.68;;;;;;;12.68;80.21;101167.72;5076269;28;20043;-63
2022/04/13 03:30:29;;;;;;;14.05;7.10;;;;;;;12.63;80.41;101177.47;5076803;28;20054;-62
2022/04/13 03:32:54;;;;;;;13.45;6.93;;;;;;;12.58;80.69;101163.53;5076334;28;20129;-63
2022/04/13 03:35:22;;;;;;;9.32;6.75;;;;;;;12.60;80.69;101173.13;5076617;28;20458;-62
2022/04/13 03:37:47;;;;;;;13.07;6.90;;;;;;;12.48;81.41;101170.66;5076524;28;20126;-62
2022/04/13 03:40:12;;;;;;;14.70;7.57;;;;;;;12.41;81.55;101177.78;5076269;28;20060;-63
2022/04/13 03:42:40;;;;;;;15.73;8.10;;;;;;;12.32;81.64;101180.53;5076222;28;20246;-62
2022/04/13 03:45:07;;;;;;;17.48;7.15;;;;;;;12.26;82.73;101185.03;5076032;28;20032;-63
2022/04/13 03:47:32;;;;;;;14.40;7.63;;;;;;;12.28;82.83;101191.13;5075499;28;20317;-62
2022/04/13 03:49:58;;;;;;;13.90;7.38;;;;;;;12.26;82.45;101191.16;5076109;28;20078;-62
2022/04/13 03:52:24;;;;;;;12.27;6.93;;;;;;;12.26;82.71;101187.66;5075988;28;20444;-62
2022/04/13 03:54:49;;;;;;;11.82;7.28;;;;;;;12.20;83.09;101178.97;5076143;28;20043;-62
2022/04/13 03:57:14;;;;;;;11.85;7.30;;;;;;;12.18;83.01;101190.38;5075369;28;20094;-63
2022/04/13 03:59:40;;;;;;;13.27;7.55;;;;;;;12.03;83.07;101180.09;5076411;28;20029;-63
2022/04/13 04:02:05;;;;;;;14.05;8.10;;;;;;;12.02;83.51;101194.97;5074690;28;20055;-62
2022/04/13 04:04:30;;;;;;;14.27;7.45;;;;;;;11.99;83.23;101194.16;5076053;28;20028;-62
2022/04/13 04:06:56;;;;;;;12.30;7.38;;;;;;;12.00;83.45;101195.88;5075723;28;20119;-62
2022/04/13 04:09:21;;;;;;;12.43;7.55;;;;;;;11.95;83.75;101206.44;5075723;28;20032;-62
2022/04/13 04:11:46;;;;;;;13.07;7.88;;;;;;;11.92;84.18;101211.75;5075681;28;20031;-63
2022/04/13 04:14:12;;;;;;;13.57;7.90;;;;;;;11.91;84.38;101212.63;5075383;28;20024;-62
2022/04/13 04:16:37;;;;;;;12.80;7.53;;;;;;;11.92;83.64;101209.13;5075441;28;20340;-62
2022/04/13 04:19:02;;;;;;;13.98;7.85;;;;;;;11.87;84.13;101216.16;5075582;28;20032;-62
2022/04/13 04:21:28;;;;;;;10.90;8.10;;;;;;;11.84;84.48;101221.44;5075772;28;20336;-62
2022/04/13 04:23:53;;;;;;;14.25;7.57;;;;;;;11.82;84.63;101216.22;5075436;28;20059;-62
2022/04/13 04:26:18;;;;;;;13.52;7.80;;;;;;;11.85;84.85;101223.19;5075587;28;20045;-62
2022/04/13 04:28:43;;;;;;;14.93;8.80;;;;;;;11.85;84.97;101223.19;5075219;28;20403;-62
2022/04/13 04:31:09;;;;;;;16.70;8.82;;;;;;;11.81;85.15;101224.97;5075160;28;20033;-62
2022/04/13 04:33:34;;;;;;;13.18;8.43;;;;;;;11.82;85.24;101226.72;5075665;28;20039;-62
2022/04/13 04:35:59;;;;;;;14.63;8.65;;;;;;;11.84;84.66;101222.31;5075274;28;20086;-62
2022/04/13 04:38:27;;;;;;;13.82;8.73;;;;;;;11.85;85.93;101236.28;5075426;28;20035;-62
2022/04/13 04:40:52;;;;;;;18.73;9.32;;;;;;;11.76;85.69;101239.91;5075421;28;20328;-62
2022/04/13 04:43:18;;;;;;;16.52;9.70;;;;;;;11.89;85.99;101248.50;5075591;28;20102;-63
2022/04/13 04:45:43;;;;;;;15.45;9.45;;;;;;;11.96;86.80;101249.25;5075181;28;20029;-63
2022/04/13 04:48:08;;;;;;;16.58;9.45;;;;;;;11.99;86.36;101244.84;5075089;28;20090;-63
2022/04/13 04:50:34;;;;;;;18.02;9.98;;;;;;;12.04;85.52;101250.91;5075175;28;20056;-63
2022/04/13 04:52:59;;;;;;;18.85;10.70;;;;;;;12.06;86.29;101257.00;5075107;28;20386;-62
2022/04/13 04:55:25;;;;;;;16.95;11.07;;;;;;;12.16;85.41;101265.63;5074989;28;20056;-61
2022/04/13 04:57:51;;;;;;;18.77;11.13;;;;;;;12.23;85.16;101269.91;5074231;28;20032;-62
2022/04/13 05:00:18;;;;;;;21.58;12.15;;;;;;;12.20;85.63;101264.69;5074779;28;20036;-62
2022/04/13 05:02:52;;;;;;;18.55;11.88;;;;;;;12.28;85.13;101267.22;5075130;28;20028;-62
2022/04/13 05:05:18;;;;;;;19.15;12.05;;;;;;;12.26;85.47;101269.00;5075002;28;20028;-62
2022/04/13 05:07:44;;;;;;;20.55;11.65;;;;;;;12.24;85.67;101273.41;5075193;28;20043;-62
2022/04/13 05:10:10;;;;;;;21.52;12.32;;;;;;;12.22;85.96;101281.28;5074870;28;20063;-63
2022/04/13 05:12:44;;;;;;;25.35;12.32;;;;;;;12.27;85.54;101274.25;5074784;28;20424;-62
2022/04/13 05:15:10;;;;;;;27.83;13.18;;;;;;;12.31;85.82;101282.91;5074814;28;20036;-63
2022/04/13 05:17:37;;;;;;;28.95;13.35;;;;;;;12.38;85.72;101281.94;5074816;28;20029;-62
2022/04/13 05:20:03;;;;;;;27.88;14.73;;;;;;;12.38;85.49;101285.44;5074803;28;20039;-63
2022/04/13 05:22:29;;;;;;;25.90;14.45;;;;;;;12.52;85.49;101287.88;5074753;28;20466;-63
2022/04/13 05:24:54;;;;;;;23.65;14.30;;;;;;;12.57;85.53;101287.81;5074695;28;20032;-63
2022/04/13 05:27:19;;;;;;;24.73;14.20;;;;;;;12.64;85.62;101295.56;5074576;28;20350;-62
2022/04/13 05:29:44;;;;;;;26.90;15.90;;;;;;;12.68;85.03;101291.13;5074561;28;20044;-63
2022/04/13 05:32:10;;;;;;;25.42;14.98;;;;;;;12.79;84.76;101291.88;5074890;28;20053;-62
2022/04/13 05:34:35;;;;;;;25.38;15.70;;;;;;;12.85;84.76;101297.88;5074830;28;20378;-62
2022/04/13 05:37:00;;;;;;;24.65;15.02;;;;;;;12.94;84.89;101309.13;5074674;28;20037;-62
2022/04/13 05:39:26;;;;;;;24.83;15.32;;;;;;;13.03;84.85;101317.72;5073464;28;20039;-63
2022/04/13 05:41:51;;;;;;;32.00;16.00;;;;;;;13.04;84.66;101308.09;5074383;28;20059;-62
2022/04/13 05:44:17;;;;;;;26.17;16.90;;;;;;;13.14;84.39;101318.44;5074642;28;20082;-63
2022/04/13 05:46:42;;;;;;;27.50;17.00;;;;;;;13.37;83.37;101320.69;5074570;28;20043;-63
2022/04/13 05:49:07;;;;;;;28.50;17.88;;;;;;;13.60;83.05;101309.78;5074841;28;20402;-63
2022/04/13 05:51:33;;;;;;;26.27;16.35;;;;;;;13.90;80.83;101313.59;5074586;28;20435;-64
2022/04/13 05:53:58;;;;;;;27.05;16.98;;;;;;;14.09;80.21;101309.69;5074268;28;20044;-63
2022/04/13 05:56:23;;;;;;;30.27;17.48;;;;;;;14.14;79.72;101315.75;5074846;28;20031;-63
2022/04/13 05:58:48;;;;;;;28.05;17.48;;;;;;;14.16;79.44;101318.34;5074520;28;20106;-63
2022/04/13 06:01:14;;;;;;;27.48;17.58;;;;;;;14.11;79.20;101328.97;5074475;28;20028;-62
2022/04/13 06:03:39;;;;;;;29.50;18.88;;;;;;;13.99;79.66;101320.44;5074021;28;20036;-62
2022/04/13 06:06:04;;;;;;;24.98;18.48;;;;;;;13.98;79.82;101326.59;5074411;28;20333;-62
2022/04/13 06:08:29;;;;;;;29.58;19.20;;;;;;;13.93;80.00;101322.28;5074450;28;20025;-63
2022/04/13 06:10:55;;;;;;;27.92;18.00;;;;;;;14.05;80.08;101331.69;5077211;28;20349;-63
2022/04/13 06:13:20;;;;;;;25.80;18.08;;;;;;;14.20;79.55;101336.66;5077784;28;20029;-62
2022/04/13 06:15:46;;;;;;;29.40;18.42;;;;;;;14.36;78.63;101339.00;5078112;28;20036;-62
2022/04/13 06:18:11;;;;;;;26.55;18.45;;;;;;;14.38;77.93;101337.16;5077856;28;20115;-63
2022/04/13 06:20:37;;;;;;;29.08;18.60;;;;;;;14.49;78.36;101338.72;5077944;28;20083;-63
2022/04/13 06:23:02;;;;;;;27.52;18.50;;;;;;;14.51;77.92;101334.28;5077787;28;20119;-63
2022/04/13 06:25:27;;;;;;;26.73;18.02;;;;;;;14.71;77.33;101351.44;5077560;28;20040;-62
2022/04/13 06:27:53;;;;;;;28.35;17.95;;;;;;;14.89;76.75;101351.03;5077585;28;20032;-62
2022/04/13 06:30:18;;;;;;;29.67;17.38;;;;;;;14.94;75.87;101344.72;5077821;28;20036;-63
2022/04/13 06:32:45;;;;;;;23.38;16.35;;;;;;;14.94;76.19;101352.63;5077579;28;20049;-62
2022/04/13 06:35:13;;;;;;;24.05;16.85;;;;;;;14.80;76.36;101352.06;5078027;28;20032;-62
2022/04/13 06:37:39;;;;;;;22.98;16.73;;;;;;;14.79;77.00;101352.09;5077411;28;20079;-62
2022/04/13 06:40:06;;;;;;;25.33;16.83;;;;;;;14.70;76.90;101355.84;5077216;28;20029;-62
2022/04/13 06:42:33;;;;;;;29.52;17.05;;;;;;;14.62;77.83;101358.63;5077149;28;20034;-62
2022/04/13 06:44:58;;;;;;;21.80;16.15;;;;;;;14.63;77.56;101362.13;5077627;28;20426;-62
2022/04/13 06:47:24;;;;;;;32.42;17.33;;;;;;;14.58;78.10;101369.25;5077660;28;20108;-62
2022/04/13 06:49:49;;;;;;;30.95;17.88;;;;;;;14.51;78.67;101372.94;5077549;28;20040;-62
2022/04/13 06:52:14;;;;;;;26.70;17.20;;;;;;;14.55;78.89;101371.94;5077354;28;20347;-62
2022/04/13 06:54:41;;;;;;;26.23;17.30;;;;;;;14.58;78.14;101385.91;5075735;28;20394;-63
2022/04/13 06:57:06;;;;;;;24.35;17.73;;;;;;;14.64;78.24;101390.19;5075076;28;20456;-62
2022/04/13 06:59:31;;;;;;;29.08;17.70;;;;;;;14.64;77.77;101392.84;5075317;28;20028;-63
2022/04/13 07:01:57;;;;;;;27.42;17.80;;;;;;;14.74;77.89;101404.03;5075318;28;20750;-63
2022/04/13 07:04:22;;;;;;;30.85;18.55;;;;;;;14.86;77.77;101402.00;5075517;28;20031;-62
2022/04/13 07:06:47;;;;;;;29.35;18.45;;;;;;;14.85;77.20;101397.66;5075176;28;20025;-62
2022/04/13 07:09:12;;;;;;;25.70;17.77;;;;;;;14.97;76.96;101404.41;5073973;28;20448;-62
2022/04/13 07:11:38;;;;;;;27.38;17.55;;;;;;;15.07;76.64;101405.03;5075193;28;20020;-63
2022/04/13 07:14:03;;;;;;;27.55;18.17;;;;;;;15.06;76.92;101404.22;5075047;28;20036;-63
2022/04/13 07:16:28;;;;;;;30.75;18.90;;;;;;;15.06;77.25;101411.25;5075064;28;20055;-63
2022/04/13 07:18:54;;;;;;;26.92;18.17;;;;;;;15.04;77.36;101421.81;5074580;28;20111;-63
2022/04/13 07:21:19;;;;;;;30.98;19.33;;;;;;;15.02;77.56;101425.38;5074299;28;20093;-63
2022/04/13 07:23:44;;;;;;;30.40;19.85;;;;;;;15.02;77.14;101436.81;5074651;28;20036;-63
2022/04/13 07:26:11;;;;;;;25.33;18.75;;;;;;;14.96;76.91;101429.88;5074598;28;20097;-63
2022/04/13 07:28:37;;;;;;;27.05;17.77;;;;;;;15.00;77.56;101435.97;5074622;28;20033;-63
2022/04/13 07:31:02;;;;;;;31.45;19.20;;;;;;;15.17;77.81;101440.84;5074662;28;20036;-63
2022/04/13 07:33:27;;;;;;;28.92;19.40;;;;;;;15.35;76.41;101436.94;5074772;28;20064;-62
2022/04/13 07:35:53;;;;;;;25.33;18.25;;;;;;;15.43;76.48;101435.81;5074741;28;20029;-63
2022/04/13 07:38:18;;;;;;;27.92;18.05;;;;;;;15.55;75.62;101439.97;5076112;28;20187;-63
2022/04/13 07:40:44;;;;;;;25.83;17.50;;;;;;;15.63;75.51;101440.66;5076724;28;20032;-63
2022/04/13 07:43:09;;;;;;;28.88;17.55;;;;;;;15.61;75.27;101443.34;5076191;28;20270;-62
2022/04/13 07:45:35;;;;;;;27.67;18.25;;;;;;;15.55;76.75;101434.69;5076195;28;20077;-63
2022/04/13 07:48:00;;;;;;;25.52;17.75;;;;;;;15.64;76.56;101442.38;5076192;28;20036;-64
2022/04/13 07:50:25;;;;;;;26.40;17.45;;;;;;;15.65;76.67;101434.44;5076345;28;20028;-63
2022/04/13 07:52:51;;;;;;;28.42;17.15;;;;;;;15.76;75.76;101444.72;5075947;28;20032;-63
2022/04/13 07:55:16;;;;;;;30.35;18.55;;;;;;;15.75;75.79;101442.16;5075898;28;20034;-63
2022/04/13 07:57:41;;;;;;;28.63;17.40;;;;;;;15.78;75.91;101444.69;5075612;28;20481;-63
2022/04/13 08:00:12;;;;;;;28.02;18.48;;;;;;;15.76;76.33;101433.31;5075805;28;20270;-63
2022/04/13 08:02:37;;;;;;;28.40;18.45;;;;;;;16.16;75.16;101460.41;5075790;28;20424;-63
2022/04/13 08:05:03;;;;;;;24.55;18.10;;;;;;;16.40;73.88;101458.88;5075919;28;20037;-63
2022/04/13 08:07:28;;;;;;;25.30;17.10;;;;;;;16.63;73.01;101455.59;5075635;28;20029;-63
2022/04/13 08:09:53;;;;;;;30.35;17.05;;;;;;;16.85;73.44;101461.16;5076075;28;20113;-63
2022/04/13 08:12:19;;;;;;;22.73;15.82;;;;;;;16.99;71.59;101458.94;5075411;28;20039;-64
2022/04/13 08:14:46;;;;;;;23.88;15.57;;;;;;;16.93;71.13;101460.03;5075566;28;20029;-64
2022/04/13 08:17:12;;;;;;;24.70;16.10;;;;;;;16.79;71.67;101454.28;5075526;28;20028;-63
2022/04/13 08:19:37;;;;;;;23.85;15.50;;;;;;;16.81;70.92;101464.78;5073456;28;20446;-63
2022/04/13 08:22:03;;;;;;;22.63;15.77;;;;;;;16.88;71.50;101469.84;5059491;28;20035;-63
2022/04/13 08:24:29;;;;;;;19.98;15.73;;;;;;;16.86;71.56;101473.44;5075344;28;20025;-64
2022/04/13 08:26:54;;;;;;;19.15;14.63;;;;;;;16.79;71.33;101472.78;5075133;28;20348;-63
2022/04/13 08:29:19;;;;;;;20.10;14.40;;;;;;;16.81;71.42;101470.06;5095845;28;20024;-63
2022/04/13 08:31:44;;;;;;;20.25;13.50;;;;;;;16.83;71.67;101473.53;5095414;28;20087;-63
2022/04/13 08:34:10;;;;;;;19.20;11.70;;;;;;;16.90;71.46;101483.91;5095409;28;20043;-63
2022/04/13 08:36:35;;;;;;;18.38;11.80;;;;;;;16.98;71.28;101479.22;5058695;28;20444;-63
2022/04/13 08:39:00;;;;;;;18.40;12.00;;;;;;;17.03;70.84;101481.75;5058383;28;20036;-64
2022/04/13 08:41:48;;;;;;;21.00;10.80;;;;;;;17.21;70.92;101477.69;5075472;28;20270;-64
2022/04/13 08:44:34;;;;;;;17.25;11.35;;;;;;;17.35;69.83;101488.69;5062089;28;20109;-64
2022/04/13 08:47:07;;;;;;;18.65;11.73;;;;;;;17.32;69.94;101492.31;5066798;28;20531;-64
2022/04/13 08:49:34;;;;;;;15.45;11.05;;;;;;;17.37;69.97;101493.03;5062763;28;20056;-64
2022/04/13 08:52:03;;;;;;;19.75;12.10;;;;;;;17.40;69.63;101498.25;5056707;28;20113;-65
2022/04/13 08:54:31;;;;;;;18.60;11.90;;;;;;;17.59;69.45;101493.22;5061535;28;20379;-65
2022/04/13 08:56:57;;;;;;;21.00;12.32;;;;;;;17.84;68.41;101492.44;5054046;28;20756;-65
2022/04/13 08:59:31;;;;;;;17.38;12.05;;;;;;;18.12;67.13;101500.34;5053470;28;20085;-66
2022/04/13 09:02:05;;;;;;;23.88;12.40;;;;;;;18.27;66.41;101505.13;5053380;28;20068;-64
2022/04/13 09:04:35;;;;;;;17.45;11.70;;;;;;;18.21;68.12;101503.53;5053241;28;20064;-64
2022/04/13 09:07:02;;;;;;;18.02;11.55;;;;;;;18.27;67.25;101511.28;5053124;28;20029;-64
2022/04/13 09:09:37;;;;;;;18.90;12.80;;;;;;;18.46;66.60;101510.63;5053839;28;20025;-64
2022/04/13 09:12:04;;;;;;;20.75;12.98;;;;;;;18.64;66.87;101507.38;5064119;28;20040;-65
2022/04/13 09:14:31;;;;;;;18.05;13.07;;;;;;;18.71;64.89;101506.22;5064767;28;20036;-64
2022/04/13 09:16:57;;;;;;;21.63;13.32;;;;;;;18.61;66.89;101513.63;5065011;28;20033;-64
2022/04/13 09:19:24;;;;;;;18.92;14.02;;;;;;;18.48;65.43;101519.41;5062928;28;20086;-64
2022/04/13 09:21:54;;;;;;;18.05;13.60;;;;;;;18.45;65.28;101523.03;5064614;28;20033;-63
2022/04/13 09:24:19;;;;;;;19.40;13.68;;;;;;;18.48;65.50;101520.28;5064983;28;20102;-64
2022/04/13 09:26:45;;;;;;;19.33;14.23;;;;;;;18.60;64.79;101521.66;5063157;28;20029;-64
2022/04/13 09:29:11;;;;;;;20.75;14.13;;;;;;;18.42;66.50;101529.28;5064465;28;20029;-63
2022/04/13 09:31:37;;;;;;;22.75;14.50;;;;;;;18.47;66.04;101522.97;5064200;28;20052;-63
2022/04/13 09:34:02;;;;;;;19.83;13.73;;;;;;;18.35;65.77;101533.09;5057229;28;20127;-62
2022/04/13 09:36:28;;;;;;;20.77;13.95;;;;;;;18.22;66.92;101547.66;5054589;28;20340;-63
2022/04/13 09:38:56;;;;;;;18.65;12.85;;;;;;;18.10;67.81;101548.09;5054452;28;20040;-63
2022/04/13 09:41:32;;;;;;;18.73;14.07;;;;;;;17.99;67.99;101540.50;5059338;28;20029;-64
2022/04/13 09:43:58;;;;;;;19.15;13.65;;;;;;;17.79;67.14;101540.28;5068236;28;20036;-62
2022/04/13 09:46:29;;;;;;;20.73;13.80;;;;;;;17.61;68.24;101549.63;5078512;28;20035;-63
2022/04/13 09:49:30;;;;;;;20.20;14.82;;;;;;;17.64;68.72;101544.28;5078522;28;20427;-62
2022/04/13 09:51:56;;;;;;;19.63;15.50;;;;;;;17.46;68.76;101543.94;4996713;28;20030;-63
2022/04/13 09:54:24;;;;;;;20.35;15.40;;;;;;;17.39;69.23;101554.72;5061128;28;20502;-63
2022/04/13 09:56:49;;;;;;;21.52;15.23;;;;;;;17.35;69.50;101546.91;5078276;28;20115;-64
2022/04/13 09:59:28;;;;;;;20.35;15.38;;;;;;;17.31;69.14;101553.22;5078141;28;20119;-64
2022/04/13 10:01:54;;;;;;;25.38;15.80;;;;;;;17.18;70.51;101539.47;5078425;28;20040;-64
2022/04/13 10:04:26;;;;;;;24.23;16.98;;;;;;;17.14;70.12;101552.84;5077905;28;20493;-62
2022/04/13 10:06:52;;;;;;;20.38;16.70;;;;;;;17.12;71.05;101549.38;5077990;28;20108;-62
2022/04/13 10:09:19;;;;;;;25.27;17.60;;;;;;;17.04;70.95;101558.41;5078100;28;20037;-63
2022/04/13 10:12:03;;;;;;;23.60;17.75;;;;;;;17.08;70.55;101553.88;5077779;28;20055;-63
2022/04/13 10:14:31;;;;;;;22.90;17.73;;;;;;;17.01;71.78;101554.97;5076935;28;20101;-63
2022/04/13 10:17:07;;;;;;;23.25;17.80;;;;;;;16.96;71.42;101554.25;5077869;28;20028;-63
2022/04/13 10:19:33;;;;;;;26.75;18.08;;;;;;;16.87;71.52;101555.38;5077683;28;20427;-63
2022/04/13 10:22:00;;;;;;;24.38;16.85;;;;;;;16.83;72.83;101556.34;5077558;28;20071;-64
2022/04/13 10:24:29;;;;;;;24.27;17.40;;;;;;;16.83;72.93;101556.34;5077799;28;20351;-62
2022/04/13 10:27:12;;;;;;;25.48;17.17;;;;;;;16.82;72.38;101559.91;5077813;28;20036;-63
2022/04/13 10:29:40;;;;;;;21.38;15.93;;;;;;;16.81;72.61;101560.81;5077880;28;20028;-62
2022/04/13 10:32:15;;;;;;;20.38;15.30;;;;;;;16.74;73.46;101555.75;5077790;28;20041;-62
2022/04/13 10:34:48;;;;;;;21.27;15.90;;;;;;;16.67;73.41;101547.97;5077347;28;20062;-62
2022/04/13 10:37:19;;;;;;;21.73;15.73;;;;;;;16.78;73.21;101565.34;5077437;28;20031;-62
2022/04/13 10:39:46;;;;;;;19.65;15.23;;;;;;;16.74;73.93;101569.84;5077124;28;20132;-63
2022/04/13 10:42:14;;;;;;;20.55;16.02;;;;;;;16.70;74.79;101573.47;5077604;28;20090;-63
2022/04/13 10:45:01;;;;;;;23.48;16.73;;;;;;;16.67;74.77;101584.13;5077461;28;20111;-63
2022/04/13 10:47:49;;;;;;;22.73;17.00;;;;;;;16.67;74.01;101574.41;5068339;28;20037;-63
2022/04/13 10:50:20;;;;;;;23.75;16.52;;;;;;;16.72;75.35;101578.72;5066457;28;20024;-62
2022/04/13 10:53:14;;;;;;;21.15;17.40;;;;;;;16.77;74.75;101584.75;5065749;28;20056;-63
2022/04/13 10:55:41;;;;;;;23.60;18.45;;;;;;;16.78;76.62;101590.00;5067612;28;20127;-63
2022/04/13 10:58:58;;;;;;;24.42;18.88;;;;;;;16.85;75.20;101599.47;5066549;28;20171;-63
2022/04/13 11:01:28;;;;;;;28.75;20.58;;;;;;;16.73;76.25;101597.19;5042756;28;20079;-63
2022/04/13 11:03:53;;;;;;;29.52;21.08;;;;;;;16.71;76.88;101596.34;5067530;28;20036;-62
2022/04/13 11:06:20;;;;;;;28.40;21.83;;;;;;;16.59;76.53;101601.94;5065590;28;20032;-64
2022/04/13 11:08:51;;;;;;;28.52;22.08;;;;;;;16.57;76.96;101604.63;5066649;28;20025;-64
2022/04/13 11:11:20;;;;;;;32.33;23.83;;;;;;;16.55;77.48;101598.50;5056709;28;20406;-63
2022/04/13 11:13:47;;;;;;;32.72;25.00;;;;;;;16.56;76.49;101604.66;5056462;28;20036;-55